Time;durP1;ratioP1;P1;durP2;ratioP2;P2;SDS_P1;SDS_P2;PMS_P1;PMS_P2;Temp;Humidity;BMP_temperature;BMP_pressure;BME280_temperature;BME280_humidity;BME280_pressure;Samples;Min_cycle;Max_cycle;Signal;HPM_P1;HPM_P2
2022/02/25 00:00:36;;;;;;;;;;;;;;;;;;4993028;28;19922;-55
2022/02/25 00:03:02;;;;;;;;;;;;;;;;;;4994746;28;19914;-52
2022/02/25 00:05:27;;;;;;;;;;;;;;;;;;4999878;28;19921;-57
2022/02/25 00:07:52;;;;;;;;;;;;;;;;;;4993046;28;19920;-54
2022/02/25 00:10:17;;;;;;;;;;;;;;;;;;4994808;28;19937;-56
2022/02/25 00:12:42;;;;;;;;;;;;;;;;;;4993956;28;19914;-55
2022/02/25 00:15:07;;;;;;;;;;;;;;;;;;4996540;28;19967;-56
2022/02/25 00:17:33;;;;;;;;;;;;;;;;;;4996221;28;19974;-56
2022/02/25 00:19:58;;;;;;;;;;;;;;;;;;4994571;28;19917;-55
2022/02/25 00:22:23;;;;;;;;;;;;;;;;;;4996235;28;20000;-56
2022/02/25 00:24:48;;;;;;;;;;;;;;;;;;4997417;28;20384;-56
2022/02/25 00:27:13;;;;;;;;;;;;;;;;;;4993475;28;19920;-56
2022/02/25 00:29:38;;;;;;;;;;;;;;;;;;4995278;28;19913;-56
2022/02/25 00:32:04;;;;;;;;;;;;;;;;;;4997180;28;19945;-56
2022/02/25 00:34:29;;;;;;;;;;;;;;;;;;4998451;28;20391;-56
2022/02/25 00:36:54;;;;;;;;;;;;;;;;;;4999092;28;19909;-54
2022/02/25 00:39:19;;;;;;;;;;;;;;;;;;4999887;28;19940;-55
2022/02/25 00:41:44;;;;;;;;;;;;;;;;;;5000266;28;19913;-56
2022/02/25 00:44:09;;;;;;;;;;;;;;;;;;4997472;28;19920;-58
2022/02/25 00:46:34;;;;;;;;;;;;;;;;;;4999625;28;19985;-56
2022/02/25 00:49:00;;;;;;;;;;;;;;;;;;4998689;28;19913;-58
2022/02/25 00:51:25;;;;;;;;;;;;;;;;;;4999868;28;19929;-58
2022/02/25 00:53:50;;;;;;;;;;;;;;;;;;5000180;28;19909;-58
2022/02/25 00:56:15;;;;;;;;;;;;;;;;;;5001227;28;20000;-58
2022/02/25 00:58:40;;;;;;;;;;;;;;;;;;5000395;28;20293;-57
2022/02/25 01:01:05;;;;;;;;;;;;;;;;;;4997858;28;19913;-57
2022/02/25 01:03:31;;;;;;;;;;;;;;;;;;5002524;28;20399;-57
2022/02/25 01:05:56;;;;;;;;;;;;;;;;;;5000382;28;19917;-57
2022/02/25 01:08:21;;;;;;;;;;;;;;;;;;5002902;28;19961;-57
2022/02/25 01:10:46;;;;;;;;;;;;;;;;;;4999819;28;19996;-58
2022/02/25 01:13:11;;;;;;;;;;;;;;;;;;4996563;28;19910;-57
2022/02/25 01:15:36;;;;;;;;;;;;;;;;;;4999646;28;20000;-57
2022/02/25 01:18:02;;;;;;;;;;;;;;;;;;4997520;28;20432;-57
2022/02/25 01:20:27;;;;;;;;;;;;;;;;;;4997458;28;19921;-56
2022/02/25 01:22:52;;;;;;;;;;;;;;;;;;4999256;28;19958;-57
2022/02/25 01:25:17;;;;;;;;;;;;;;;;;;4999716;28;20333;-57
2022/02/25 01:27:42;;;;;;;;;;;;;;;;;;4997115;28;19910;-57
2022/02/25 01:30:07;;;;;;;;;;;;;;;;;;4999272;28;20439;-55
2022/02/25 01:32:32;;;;;;;;;;;;;;;;;;4998893;28;20016;-55
2022/02/25 01:34:58;;;;;;;;;;;;;;;;;;4997154;28;19914;-56
2022/02/25 01:37:24;;;;;;;;;;;;;;;;;;4996702;28;19917;-57
2022/02/25 01:39:49;;;;;;;;;;;;;;;;;;4996050;28;19941;-54
2022/02/25 01:42:14;;;;;;;;;;;;;;;;;;4996984;28;20329;-56
2022/02/25 01:44:40;;;;;;;;;;;;;;;;;;4996087;28;19925;-56
2022/02/25 01:47:05;;;;;;;;;;;;;;;;;;5001904;28;19954;-56
2022/02/25 01:49:30;;;;;;;;;;;;;;;;;;4999623;28;19917;-56
2022/02/25 01:51:55;;;;;;;;;;;;;;;;;;4997509;28;20367;-56
2022/02/25 01:54:20;;;;;;;;;;;;;;;;;;4998315;28;19910;-58
2022/02/25 01:56:46;;;;;;;;;;;;;;;;;;4998231;28;20404;-57
2022/02/25 01:59:11;;;;;;;;;;;;;;;;;;4998128;28;19920;-57
2022/02/25 02:01:36;;;;;;;;;;;;;;;;;;4996222;28;19918;-58
2022/02/25 02:04:01;;;;;;;;;;;;;;;;;;4999175;28;19913;-57
2022/02/25 02:06:26;;;;;;;;;;;;;;;;;;4998931;28;20344;-57
2022/02/25 02:08:51;;;;;;;;;;;;;;;;;;4997041;28;20009;-57
2022/02/25 02:11:17;;;;;;;;;;;;;;;;;;4998876;28;19961;-57
2022/02/25 02:13:42;;;;;;;;;;;;;;;;;;4997715;28;19918;-58
2022/02/25 02:16:07;;;;;;;;;;;;;;;;;;4997319;28;19961;-57
2022/02/25 02:18:32;;;;;;;;;;;;;;;;;;4998456;28;19914;-57
2022/02/25 02:20:57;;;;;;;;;;;;;;;;;;4998720;28;20404;-57
2022/02/25 02:23:22;;;;;;;;;;;;;;;;;;4999760;28;20004;-57
2022/02/25 02:25:48;;;;;;;;;;;;;;;;;;4999811;28;19956;-57
2022/02/25 02:28:20;;;;;;;;;;;;;;;;;;4997190;28;20318;-56
2022/02/25 02:30:45;;;;;;;;;;;;;;;;;;4997008;28;19945;-57
2022/02/25 02:33:10;;;;;;;;;;;;;;;;;;4997476;28;19914;-57
2022/02/25 02:35:35;;;;;;;;;;;;;;;;;;4997344;28;19975;-57
2022/02/25 02:38:01;;;;;;;;;;;;;;;;;;4996636;28;20377;-58
2022/02/25 02:40:26;;;;;;;;;;;;;;;;;;4997762;28;19917;-57
2022/02/25 02:42:51;;;;;;;;;;;;;;;;;;4999993;28;19993;-56
2022/02/25 02:45:16;;;;;;;;;;;;;;;;;;4997087;28;19910;-58
2022/02/25 02:47:41;;;;;;;;;;;;;;;;;;4997836;28;20096;-54
2022/02/25 02:50:06;;;;;;;;;;;;;;;;;;4998032;28;19980;-56
2022/02/25 02:52:32;;;;;;;;;;;;;;;;;;4996194;28;19932;-58
2022/02/25 02:54:57;;;;;;;;;;;;;;;;;;4996530;28;19957;-57
2022/02/25 02:57:22;;;;;;;;;;;;;;;;;;4997788;28;20013;-57
2022/02/25 02:59:47;;;;;;;;;;;;;;;;;;4999890;28;20379;-57
2022/02/25 03:02:12;;;;;;;;;;;;;;;;;;4996928;28;19917;-57
2022/02/25 03:04:38;;;;;;;;;;;;;;;;;;4998111;28;20271;-57
2022/02/25 03:07:03;;;;;;;;;;;;;;;;;;4999044;28;19918;-58
2022/02/25 03:09:28;;;;;;;;;;;;;;;;;;4996216;28;20415;-57
2022/02/25 03:11:54;;;;;;;;;;;;;;;;;;5001881;28;19917;-54
2022/02/25 03:14:19;;;;;;;;;;;;;;;;;;4997686;28;19932;-56
2022/02/25 03:16:45;;;;;;;;;;;;;;;;;;4997188;28;20353;-56
2022/02/25 03:19:10;;;;;;;;;;;;;;;;;;4996857;28;19917;-57
2022/02/25 03:21:35;;;;;;;;;;;;;;;;;;4997494;28;19913;-57
2022/02/25 03:24:00;;;;;;;;;;;;;;;;;;4995441;28;19914;-58
2022/02/25 03:26:25;;;;;;;;;;;;;;;;;;4997183;28;19999;-58
2022/02/25 03:28:51;;;;;;;;;;;;;;;;;;5000237;28;19940;-57
2022/02/25 03:31:16;;;;;;;;;;;;;;;;;;4997374;28;20317;-57
2022/02/25 03:33:41;;;;;;;;;;;;;;;;;;4994533;28;19913;-55
2022/02/25 03:36:06;;;;;;;;;;;;;;;;;;4998293;28;19918;-56
2022/02/25 03:38:32;;;;;;;;;;;;;;;;;;4999336;28;19918;-57
2022/02/25 03:40:57;;;;;;;;;;;;;;;;;;4995054;28;19944;-56
2022/02/25 03:43:22;;;;;;;;;;;;;;;;;;4995013;28;19914;-55
2022/02/25 03:45:47;;;;;;;;;;;;;;;;;;4994759;28;20379;-57
2022/02/25 03:48:12;;;;;;;;;;;;;;;;;;4996267;28;19913;-55
2022/02/25 03:50:38;;;;;;;;;;;;;;;;;;4998667;28;19945;-57
2022/02/25 03:53:04;;;;;;;;;;;;;;;;;;4996343;28;19910;-56
2022/02/25 03:55:29;;;;;;;;;;;;;;;;;;4996290;28;20446;-56
2022/02/25 03:57:54;;;;;;;;;;;;;;;;;;4998190;28;20003;-55
2022/02/25 04:00:19;;;;;;;;;;;;;;;;;;4994149;28;20836;-55
2022/02/25 04:02:45;;;;;;;;;;;;;;;;;;4995169;28;19917;-56
2022/02/25 04:05:13;;;;;;;;;;;;;;;;;;4997635;28;19921;-56
2022/02/25 04:07:38;;;;;;;;;;;;;;;;;;4999193;28;19925;-55
2022/02/25 04:10:03;;;;;;;;;;;;;;;;;;5000155;28;19953;-56
2022/02/25 04:12:28;;;;;;;;;;;;;;;;;;5003265;28;19999;-56
2022/02/25 04:14:53;;;;;;;;;;;;;;;;;;5001227;28;19969;-56
2022/02/25 04:17:19;;;;;;;;;;;;;;;;;;5001617;28;20415;-56
2022/02/25 04:19:44;;;;;;;;;;;;;;;;;;5000678;28;19931;-57
2022/02/25 04:22:09;;;;;;;;;;;;;;;;;;4999880;28;20316;-56
2022/02/25 04:24:34;;;;;;;;;;;;;;;;;;5000431;28;19918;-56
2022/02/25 04:26:59;;;;;;;;;;;;;;;;;;4999768;28;20020;-58
2022/02/25 04:29:24;;;;;;;;;;;;;;;;;;5001336;28;19910;-57
2022/02/25 04:31:50;;;;;;;;;;;;;;;;;;4998176;28;19932;-57
2022/02/25 04:34:15;;;;;;;;;;;;;;;;;;5001035;28;19909;-58
2022/02/25 04:36:40;;;;;;;;;;;;;;;;;;5002996;28;19972;-59
2022/02/25 04:39:05;;;;;;;;;;;;;;;;;;4999265;28;19992;-56
2022/02/25 04:41:30;;;;;;;;;;;;;;;;;;5001206;28;19910;-56
2022/02/25 04:43:55;;;;;;;;;;;;;;;;;;4998255;28;20372;-56
2022/02/25 04:46:21;;;;;;;;;;;;;;;;;;4999869;28;19909;-57
2022/02/25 04:48:46;;;;;;;;;;;;;;;;;;4997101;28;19909;-57
2022/02/25 04:51:11;;;;;;;;;;;;;;;;;;5001701;28;19929;-57
2022/02/25 04:53:36;;;;;;;;;;;;;;;;;;4999612;28;19913;-56
2022/02/25 04:56:01;;;;;;;;;;;;;;;;;;5002860;28;20004;-56
2022/02/25 04:58:27;;;;;;;;;;;;;;;;;;4999196;28;19945;-54
2022/02/25 05:00:52;;;;;;;;;;;;;;;;;;4996394;28;19925;-55
2022/02/25 05:03:17;;;;;;;;;;;;;;;;;;5003378;28;19953;-57
2022/02/25 05:05:43;;;;;;;;;;;;;;;;;;5033604;28;20016;-56
2022/02/25 05:08:08;;;;;;;;;;;;;;;;;;4998704;28;20064;-55
2022/02/25 05:10:33;;;;;;;;;;;;;;;;;;5001999;28;20370;-56
2022/02/25 05:12:58;;;;;;;;;;;;;;;;;;4998626;28;19917;-55
2022/02/25 05:20:52;;;;;;;;;;;;;;;;;;4997493;28;20006;-55
2022/02/25 05:23:18;;;;;;;;;;;;;;;;;;4999916;28;19990;-57
2022/02/25 05:25:43;;;;;;;;;;;;;;;;;;5001390;28;19913;-56
2022/02/25 05:28:08;;;;;;;;;;;;;;;;;;5015902;28;19909;-57
2022/02/25 05:30:33;;;;;;;;;;;;;;;;;;5003701;28;19928;-57
2022/02/25 05:32:58;;;;;;;;;;;;;;;;;;4997124;28;19913;-57
2022/02/25 05:35:23;;;;;;;;;;;;;;;;;;5001660;28;20347;-55
2022/02/25 05:37:49;;;;;;;;;;;;;;;;;;5002341;28;20050;-55
2022/02/25 05:40:14;;;;;;;;;;;;;;;;;;5001516;28;20284;-54
2022/02/25 05:42:39;;;;;;;;;;;;;;;;;;4997556;28;19957;-57
2022/02/25 05:45:04;;;;;;;;;;;;;;;;;;4998649;28;20374;-57
2022/02/25 05:47:29;;;;;;;;;;;;;;;;;;4999592;28;19913;-55
2022/02/25 05:49:54;;;;;;;;;;;;;;;;;;5000090;28;20357;-58
2022/02/25 05:52:19;;;;;;;;;;;;;;;;;;4999321;28;19913;-55
2022/02/25 05:54:45;;;;;;;;;;;;;;;;;;4995852;28;19925;-55
2022/02/25 05:57:10;;;;;;;;;;;;;;;;;;4997815;28;19913;-57
2022/02/25 05:59:35;;;;;;;;;;;;;;;;;;4999338;28;19918;-54
2022/02/25 06:02:00;;;;;;;;;;;;;;;;;;4998015;28;20491;-57
2022/02/25 06:04:25;;;;;;;;;;;;;;;;;;4997488;28;19909;-57
2022/02/25 06:06:50;;;;;;;;;;;;;;;;;;4997624;28;19932;-57
2022/02/25 06:09:16;;;;;;;;;;;;;;;;;;5000163;28;19956;-56
2022/02/25 06:11:41;;;;;;;;;;;;;;;;;;4997948;28;19914;-55
2022/02/25 06:14:06;;;;;;;;;;;;;;;;;;4999134;28;20316;-56
2022/02/25 06:16:31;;;;;;;;;;;;;;;;;;4999138;28;19932;-56
2022/02/25 06:18:56;;;;;;;;;;;;;;;;;;4999201;28;20596;-56
2022/02/25 06:21:21;;;;;;;;;;;;;;;;;;4996808;28;19918;-54
2022/02/25 06:23:46;;;;;;;;;;;;;;;;;;4997334;28;19941;-55
2022/02/25 06:26:12;;;;;;;;;;;;;;;;;;5001161;28;20384;-57
2022/02/25 06:28:37;;;;;;;;;;;;;;;;;;4998526;28;19922;-56
2022/02/25 06:31:02;;;;;;;;;;;;;;;;;;4998215;28;19961;-57
2022/02/25 06:33:27;;;;;;;;;;;;;;;;;;4999015;28;20266;-48
2022/02/25 06:35:52;;;;;;;;;;;;;;;;;;4994591;28;20000;-46
2022/02/25 06:38:17;;;;;;;;;;;;;;;;;;4998507;28;19976;-47
2022/02/25 06:40:42;;;;;;;;;;;;;;;;;;4995579;28;20262;-49
2022/02/25 06:43:08;;;;;;;;;;;;;;;;;;4996325;28;20435;-48
2022/02/25 06:45:33;;;;;;;;;;;;;;;;;;4996375;28;19910;-46
2022/02/25 06:47:58;;;;;;;;;;;;;;;;;;4998746;28;19972;-49
2022/02/25 06:50:23;;;;;;;;;;;;;;;;;;4997759;28;19929;-47
2022/02/25 06:52:49;;;;;;;;;;;;;;;;;;4999328;28;19944;-47
2022/02/25 06:55:14;;;;;;;;;;;;;;;;;;5000113;28;19917;-51
2022/02/25 06:57:39;;;;;;;;;;;;;;;;;;4997007;28;19917;-50
2022/02/25 07:00:05;;;;;;;;;;;;;;;;;;4991090;28;19972;-51
2022/02/25 07:02:30;;;;;;;;;;;;;;;;;;4994927;28;20484;-53
2022/02/25 07:04:55;;;;;;;;;;;;;;;;;;4992673;28;19914;-51
2022/02/25 07:07:20;;;;;;;;;;;;;;;;;;5010045;28;20449;-51
2022/02/25 07:09:45;;;;;;;;;;;;;;;;;;4993629;28;19968;-53
2022/02/25 07:12:10;;;;;;;;;;;;;;;;;;4993471;28;19992;-52
2022/02/25 07:14:36;;;;;;;;;;;;;;;;;;4997510;28;19914;-52
2022/02/25 07:17:01;;;;;;;;;;;;;;;;;;4996929;28;19914;-51
2022/02/25 07:19:26;;;;;;;;;;;;;;;;;;4992736;28;19924;-49
2022/02/25 07:21:51;;;;;;;;;;;;;;;;;;4995391;28;19918;-51
2022/02/25 07:24:16;;;;;;;;;;;;;;;;;;4996415;28;20301;-51
2022/02/25 07:26:42;;;;;;;;;;;;;;;;;;4994317;28;19920;-49
2022/02/25 07:29:09;;;;;;;;;;;;;;;;;;4996615;28;19957;-52
2022/02/25 07:31:34;;;;;;;;;;;;;;;;;;4995229;28;20390;-51
2022/02/25 07:33:59;;;;;;;;;;;;;;;;;;4994842;28;19968;-50
2022/02/25 07:36:24;;;;;;;;;;;;;;;;;;4995842;28;20285;-49
2022/02/25 07:38:50;;;;;;;;;;;;;;;;;;4989781;28;19965;-47
2022/02/25 07:41:15;;;;;;;;;;;;;;;;;;4997916;28;19917;-47
2022/02/25 07:43:40;;;;;;;;;;;;;;;;;;4996453;28;20158;-49
2022/02/25 07:46:05;;;;;;;;;;;;;;;;;;4998969;28;19914;-49
2022/02/25 07:48:30;;;;;;;;;;;;;;;;;;4997611;28;19992;-48
2022/02/25 07:50:55;;;;;;;;;;;;;;;;;;4997840;28;20386;-47
2022/02/25 07:53:21;;;;;;;;;;;;;;;;;;4997035;28;20369;-42
2022/02/25 07:55:46;;;;;;;;;;;;;;;;;;5002831;28;19917;-48
2022/02/25 07:58:11;;;;;;;;;;;;;;;;;;5000025;28;19960;-45
2022/02/25 08:00:36;;;;;;;;;;;;;;;;;;4998243;28;19965;-47
2022/02/25 08:03:02;;;;;;;;;;;;;;;;;;5000820;28;20335;-45
2022/02/25 08:05:27;;;;;;;;;;;;;;;;;;5000516;28;20256;-45
2022/02/25 08:07:52;;;;;;;;;;;;;;;;;;4999284;28;19913;-43
2022/02/25 08:10:18;;;;;;;;;;;;;;;;;;5002089;28;19917;-42
2022/02/25 08:12:43;;;;;;;;;;;;;;;;;;4998106;28;20219;-47
2022/02/25 08:15:08;;;;;;;;;;;;;;;;;;4997372;28;19960;-46
2022/02/25 08:17:33;;;;;;;;;;;;;;;;;;5000440;28;20281;-47
2022/02/25 08:19:58;;;;;;;;;;;;;;;;;;4998476;28;19921;-44
2022/02/25 08:22:23;;;;;;;;;;;;;;;;;;4997540;28;21455;-46
2022/02/25 08:24:49;;;;;;;;;;;;;;;;;;5004051;28;19920;-47
2022/02/25 08:27:14;;;;;;;;;;;;;;;;;;5000675;28;19964;-43
2022/02/25 08:29:39;;;;;;;;;;;;;;;;;;5006117;28;19909;-46
2022/02/25 08:32:04;;;;;;;;;;;;;;;;;;5001164;28;19983;-44
2022/02/25 08:34:29;;;;;;;;;;;;;;;;;;5003697;28;19950;-48
2022/02/25 08:36:55;;;;;;;;;;;;;;;;;;5002919;28;20016;-44
2022/02/25 08:39:20;;;;;;;;;;;;;;;;;;5000540;28;20004;-44
2022/02/25 08:41:46;;;;;;;;;;;;;;;;;;4998679;28;19918;-48
2022/02/25 08:44:11;;;;;;;;;;;;;;;;;;5000284;28;20004;-45
2022/02/25 08:46:36;;;;;;;;;;;;;;;;;;5000608;28;19916;-45
2022/02/25 08:49:01;;;;;;;;;;;;;;;;;;5001029;28;20430;-44
2022/02/25 08:51:27;;;;;;;;;;;;;;;;;;5014454;28;19925;-44
2022/02/25 08:53:52;;;;;;;;;;;;;;;;;;5001589;28;19924;-45
2022/02/25 08:56:17;;;;;;;;;;;;;;;;;;5002776;28;20614;-45
2022/02/25 08:58:42;;;;;;;;;;;;;;;;;;4998079;28;19925;-43
2022/02/25 09:01:07;;;;;;;;;;;;;;;;;;4999525;28;19918;-48
2022/02/25 09:03:32;;;;;;;;;;;;;;;;;;4999725;28;20440;-43
2022/02/25 09:05:57;;;;;;;;;;;;;;;;;;4999641;28;19961;-45
2022/02/25 09:08:23;;;;;;;;;;;;;;;;;;5001312;28;20415;-44
2022/02/25 09:10:49;;;;;;;;;;;;;;;;;;5000678;28;19913;-43
2022/02/25 09:13:14;;;;;;;;;;;;;;;;;;4997190;28;19952;-44
2022/02/25 09:15:39;;;;;;;;;;;;;;;;;;4999514;28;20609;-43
2022/02/25 09:18:05;;;;;;;;;;;;;;;;;;4997099;28;20004;-42
2022/02/25 09:20:30;;;;;;;;;;;;;;;;;;4999884;28;19914;-48
2022/02/25 09:22:57;;;;;;;;;;;;;;;;;;4998730;28;19988;-45
2022/02/25 09:25:22;;;;;;;;;;;;;;;;;;4997477;28;19936;-46
2022/02/25 09:27:47;;;;;;;;;;;;;;;;;;4998128;28;19921;-45
2022/02/25 09:30:13;;;;;;;;;;;;;;;;;;5002099;28;20336;-44
2022/02/25 09:32:38;;;;;;;;;;;;;;;;;;5000644;28;20040;-47
2022/02/25 09:35:03;;;;;;;;;;;;;;;;;;4999269;28;20448;-48
2022/02/25 09:37:29;;;;;;;;;;;;;;;;;;4998456;28;19918;-48
2022/02/25 09:39:55;;;;;;;;;;;;;;;;;;4995997;28;20008;-45
2022/02/25 09:42:20;;;;;;;;;;;;;;;;;;4999008;28;20106;-50
2022/02/25 09:44:45;;;;;;;;;;;;;;;;;;4995833;28;19924;-43
2022/02/25 09:47:10;;;;;;;;;;;;;;;;;;4996732;28;19921;-46
2022/02/25 09:49:35;;;;;;;;;;;;;;;;;;5001268;28;19922;-44
2022/02/25 09:52:01;;;;;;;;;;;;;;;;;;4996567;28;20327;-44
2022/02/25 09:54:26;;;;;;;;;;;;;;;;;;4999084;28;19961;-45
2022/02/25 09:56:51;;;;;;;;;;;;;;;;;;5000189;28;19913;-42
2022/02/25 09:59:16;;;;;;;;;;;;;;;;;;4999673;28;19948;-47
2022/02/25 10:01:41;;;;;;;;;;;;;;;;;;4999108;28;20395;-44
2022/02/25 10:04:06;;;;;;;;;;;;;;;;;;4999273;28;19968;-44
2022/02/25 10:06:32;;;;;;;;;;;;;;;;;;4999848;28;19976;-47
2022/02/25 10:08:57;;;;;;;;;;;;;;;;;;5000001;28;20512;-47
2022/02/25 10:11:22;;;;;;;;;;;;;;;;;;4998947;28;19916;-42
2022/02/25 10:13:47;;;;;;;;;;;;;;;;;;4998696;28;20339;-42
2022/02/25 10:16:12;;;;;;;;;;;;;;;;;;4995743;28;19918;-45
2022/02/25 10:18:37;;;;;;;;;;;;;;;;;;5001052;28;19924;-47
2022/02/25 10:21:02;;;;;;;;;;;;;;;;;;5000287;28;20274;-44
2022/02/25 10:23:28;;;;;;;;;;;;;;;;;;4998711;28;20404;-43
2022/02/25 10:25:53;;;;;;;;;;;;;;;;;;4999171;28;19944;-43
2022/02/25 10:28:18;;;;;;;;;;;;;;;;;;4999526;28;19944;-43
2022/02/25 10:30:45;;;;;;;;;;;;;;;;;;5000595;28;19978;-44
2022/02/25 10:33:10;;;;;;;;;;;;;;;;;;4998928;28;19968;-42
2022/02/25 10:35:36;;;;;;;;;;;;;;;;;;4998005;28;19910;-44
2022/02/25 10:38:01;;;;;;;;;;;;;;;;;;4998359;28;20795;-43
2022/02/25 10:40:26;;;;;;;;;;;;;;;;;;4997009;28;19925;-42
2022/02/25 10:42:51;;;;;;;;;;;;;;;;;;4998865;28;20329;-45
2022/02/25 10:45:16;;;;;;;;;;;;;;;;;;4998375;28;19917;-44
2022/02/25 10:47:43;;;;;;;;;;;;;;;;;;4998967;28;20406;-46
2022/02/25 10:50:09;;;;;;;;;;;;;;;;;;4998710;28;19929;-42
2022/02/25 10:52:34;;;;;;;;;;;;;;;;;;4997336;28;19917;-44
2022/02/25 10:54:59;;;;;;;;;;;;;;;;;;4997367;28;20400;-45
2022/02/25 10:57:25;;;;;;;;;;;;;;;;;;4999406;28;19917;-44
2022/02/25 10:59:50;;;;;;;;;;;;;;;;;;4995013;28;20615;-46
2022/02/25 11:02:15;;;;;;;;;;;;;;;;;;4997660;28;19914;-47
2022/02/25 11:04:41;;;;;;;;;;;;;;;;;;4996997;28;19914;-46
2022/02/25 11:07:06;;;;;;;;;;;;;;;;;;4995678;28;19913;-45
2022/02/25 11:09:31;;;;;;;;;;;;;;;;;;4996829;28;19910;-64
2022/02/25 11:11:56;;;;;;;;;;;;;;;;;;4995760;28;20455;-46
2022/02/25 11:14:21;;;;;;;;;;;;;;;;;;4994230;28;19914;-47
2022/02/25 11:16:47;;;;;;;;;;;;;;;;;;4996620;28;19909;-48
2022/02/25 11:19:12;;;;;;;;;;;;;;;;;;4995973;28;20427;-42
2022/02/25 11:21:37;;;;;;;;;;;;;;;;;;5001242;28;20015;-46
2022/02/25 11:24:02;;;;;;;;;;;;;;;;;;4998340;28;20051;-43
2022/02/25 11:26:28;;;;;;;;;;;;;;;;;;4996623;28;19933;-48
2022/02/25 11:28:56;;;;;;;;;;;;;;;;;;5011258;28;20011;-44
2022/02/25 11:31:21;;;;;;;;;;;;;;;;;;4998432;28;19921;-45
2022/02/25 11:33:46;;;;;;;;;;;;;;;;;;4997428;28;20317;-41
2022/02/25 11:36:12;;;;;;;;;;;;;;;;;;4997653;28;19918;-42
2022/02/25 11:38:41;;;;;;;;;;;;;;;;;;4998324;28;19914;-41
2022/02/25 11:41:07;;;;;;;;;;;;;;;;;;4997346;28;19914;-40
2022/02/25 11:43:32;;;;;;;;;;;;;;;;;;4999876;28;20010;-39
2022/02/25 11:45:57;;;;;;;;;;;;;;;;;;4997994;28;19967;-40
2022/02/25 11:48:22;;;;;;;;;;;;;;;;;;4993705;28;19910;-44
2022/02/25 11:50:47;;;;;;;;;;;;;;;;;;4997531;28;20028;-44
2022/02/25 11:53:12;;;;;;;;;;;;;;;;;;4997492;28;19917;-41
2022/02/25 11:55:38;;;;;;;;;;;;;;;;;;4997028;28;20373;-46
2022/02/25 11:58:03;;;;;;;;;;;;;;;;;;4997791;28;19914;-42
2022/02/25 12:00:28;;;;;;;;;;;;;;;;;;5002214;28;20295;-41
2022/02/25 12:02:53;;;;;;;;;;;;;;;;;;4997366;28;19910;-45
2022/02/25 12:05:18;;;;;;;;;;;;;;;;;;4995424;28;20302;-44
2022/02/25 12:07:45;;;;;;;;;;;;;;;;;;4995909;28;19909;-44
2022/02/25 12:10:10;;;;;;;;;;;;;;;;;;4997480;28;19972;-44
2022/02/25 12:12:35;;;;;;;;;;;;;;;;;;4997247;28;20336;-41
2022/02/25 12:15:01;;;;;;;;;;;;;;;;;;4995862;28;19992;-42
2022/02/25 12:17:26;;;;;;;;;;;;;;;;;;4999790;28;19917;-42
2022/02/25 12:19:51;;;;;;;;;;;;;;;;;;4993285;28;20567;-41
2022/02/25 12:22:16;;;;;;;;;;;;;;;;;;5000431;28;20012;-42
2022/02/25 12:24:41;;;;;;;;;;;;;;;;;;4993341;28;19917;-43
2022/02/25 12:27:07;;;;;;;;;;;;;;;;;;5002029;28;20339;-42
2022/02/25 12:29:32;;;;;;;;;;;;;;;;;;5001584;28;20367;-41
2022/02/25 12:31:58;;;;;;;;;;;;;;;;;;4998221;28;20602;-41
2022/02/25 12:34:23;;;;;;;;;;;;;;;;;;4999796;28;20464;-42
2022/02/25 12:36:48;;;;;;;;;;;;;;;;;;4999668;28;19913;-43
2022/02/25 12:39:13;;;;;;;;;;;;;;;;;;5001466;28;19913;-43
2022/02/25 12:41:38;;;;;;;;;;;;;;;;;;4999726;28;19917;-42
2022/02/25 12:44:03;;;;;;;;;;;;;;;;;;5001364;28;19913;-44
2022/02/25 12:46:29;;;;;;;;;;;;;;;;;;5001050;28;19935;-45
2022/02/25 12:48:54;;;;;;;;;;;;;;;;;;4998945;28;19941;-42
2022/02/25 12:51:19;;;;;;;;;;;;;;;;;;4999300;28;20333;-44
2022/02/25 12:53:44;;;;;;;;;;;;;;;;;;4997299;28;19999;-43
2022/02/25 12:56:09;;;;;;;;;;;;;;;;;;5003084;28;20388;-44
2022/02/25 12:58:34;;;;;;;;;;;;;;;;;;4998898;28;19924;-41
2022/02/25 13:00:59;;;;;;;;;;;;;;;;;;5000040;28;19946;-43
2022/02/25 13:03:25;;;;;;;;;;;;;;;;;;4998682;28;20377;-44
2022/02/25 13:05:50;;;;;;;;;;;;;;;;;;5001078;28;19909;-42
2022/02/25 13:08:16;;;;;;;;;;;;;;;;;;4998572;28;19937;-43
2022/02/25 13:10:41;;;;;;;;;;;;;;;;;;5000342;28;19909;-43
2022/02/25 13:13:06;;;;;;;;;;;;;;;;;;5001112;28;19941;-44
2022/02/25 13:15:31;;;;;;;;;;;;;;;;;;4998504;28;19913;-41
2022/02/25 13:17:56;;;;;;;;;;;;;;;;;;4999339;28;19920;-42
2022/02/25 13:20:21;;;;;;;;;;;;;;;;;;5000902;28;20609;-41
2022/02/25 13:22:46;;;;;;;;;;;;;;;;;;5001302;28;19909;-42
2022/02/25 13:25:12;;;;;;;;;;;;;;;;;;4998473;28;19921;-45
2022/02/25 13:27:37;;;;;;;;;;;;;;;;;;5000683;28;19952;-40
2022/02/25 13:30:02;;;;;;;;;;;;;;;;;;5005073;28;19918;-42
2022/02/25 13:32:27;;;;;;;;;;;;;;;;;;4999862;28;20304;-42
2022/02/25 13:34:52;;;;;;;;;;;;;;;;;;4999055;28;19917;-43
2022/02/25 13:37:18;;;;;;;;;;;;;;;;;;4997390;28;20009;-42
2022/02/25 13:39:43;;;;;;;;;;;;;;;;;;4999834;28;19924;-41
2022/02/25 13:42:08;;;;;;;;;;;;;;;;;;4998109;28;20369;-43
2022/02/25 13:44:34;;;;;;;;;;;;;;;;;;5001981;28;19963;-42
2022/02/25 13:52:19;;;;;;;;;;;;;;;;;;4998000;28;19988;-40
2022/02/25 13:52:31;;;;;;;;;;;;;;;;;;4999969;28;19945;-44
2022/02/25 13:54:56;;;;;;;;;;;;;;;;;;5001136;28;19918;-40
2022/02/25 13:57:21;;;;;;;;;;;;;;;;;;4999151;28;19909;-43
2022/02/25 13:59:46;;;;;;;;;;;;;;;;;;4997919;28;19930;-44
2022/02/25 14:02:11;;;;;;;;;;;;;;;;;;4997452;28;19914;-44
2022/02/25 14:04:38;;;;;;;;;;;;;;;;;;4990432;28;20219;-41
2022/02/25 14:07:04;;;;;;;;;;;;;;;;;;4997410;28;19917;-44
2022/02/25 14:09:29;;;;;;;;;;;;;;;;;;4996561;28;19937;-41
2022/02/25 14:11:54;;;;;;;;;;;;;;;;;;4996571;28;19913;-45
2022/02/25 14:14:19;;;;;;;;;;;;;;;;;;4995077;28;19952;-41
2022/02/25 14:16:45;;;;;;;;;;;;;;;;;;4993763;28;19914;-41
2022/02/25 14:19:10;;;;;;;;;;;;;;;;;;4995765;28;20002;-44
2022/02/25 14:21:35;;;;;;;;;;;;;;;;;;4997737;28;20295;-42
2022/02/25 14:24:00;;;;;;;;;;;;;;;;;;5000642;28;19913;-41
2022/02/25 14:26:26;;;;;;;;;;;;;;;;;;4997873;28;20358;-41
2022/02/25 14:28:51;;;;;;;;;;;;;;;;;;4999059;28;19956;-40
2022/02/25 14:31:17;;;;;;;;;;;;;;;;;;4997558;28;19967;-43
2022/02/25 14:33:42;;;;;;;;;;;;;;;;;;5001247;28;19913;-43
2022/02/25 14:36:08;;;;;;;;;;;;;;;;;;5000746;28;20004;-43
2022/02/25 14:38:33;;;;;;;;;;;;;;;;;;4998304;28;19914;-40
2022/02/25 14:40:58;;;;;;;;;;;;;;;;;;4994641;28;19949;-46
2022/02/25 14:43:24;;;;;;;;;;;;;;;;;;4998157;28;20396;-54
2022/02/25 14:45:49;;;;;;;;;;;;;;;;;;4998060;28;20313;-52
2022/02/25 14:48:15;;;;;;;;;;;;;;;;;;4999991;28;19914;-50
2022/02/25 14:50:43;;;;;;;;;;;;;;;;;;4996676;28;19932;-48
2022/02/25 14:53:08;;;;;;;;;;;;;;;;;;4998235;28;19917;-51
2022/02/25 14:55:34;;;;;;;;;;;;;;;;;;4993403;28;19909;-53
2022/02/25 14:57:59;;;;;;;;;;;;;;;;;;4997051;28;20345;-52
2022/02/25 15:00:24;;;;;;;;;;;;;;;;;;4997947;28;19920;-51
2022/02/25 15:02:49;;;;;;;;;;;;;;;;;;4995479;28;20468;-49
2022/02/25 15:05:14;;;;;;;;;;;;;;;;;;4998315;28;19914;-51
2022/02/25 15:07:40;;;;;;;;;;;;;;;;;;5000231;28;19929;-53
2022/02/25 15:10:05;;;;;;;;;;;;;;;;;;4996509;28;19917;-51
2022/02/25 15:12:32;;;;;;;;;;;;;;;;;;4999431;28;20004;-48
2022/02/25 15:14:57;;;;;;;;;;;;;;;;;;4998637;28;19972;-49
2022/02/25 15:17:22;;;;;;;;;;;;;;;;;;4998728;28;19995;-49
2022/02/25 15:19:47;;;;;;;;;;;;;;;;;;4998019;28;20300;-51
2022/02/25 15:22:12;;;;;;;;;;;;;;;;;;4993332;28;20428;-52
2022/02/25 15:24:38;;;;;;;;;;;;;;;;;;4997714;28;19918;-51
2022/02/25 15:27:05;;;;;;;;;;;;;;;;;;4999836;28;20372;-54
2022/02/25 15:29:30;;;;;;;;;;;;;;;;;;4997736;28;20362;-47
2022/02/25 15:31:55;;;;;;;;;;;;;;;;;;4993580;28;19957;-49
2022/02/25 15:34:20;;;;;;;;;;;;;;;;;;4999404;28;19917;-51
2022/02/25 15:36:45;;;;;;;;;;;;;;;;;;4997753;28;19921;-50
2022/02/25 15:39:10;;;;;;;;;;;;;;;;;;4994795;28;19957;-50
2022/02/25 15:41:36;;;;;;;;;;;;;;;;;;4995667;28;19917;-50
2022/02/25 15:44:01;;;;;;;;;;;;;;;;;;4997527;28;19919;-49
2022/02/25 15:46:26;;;;;;;;;;;;;;;;;;4994140;28;19957;-52
2022/02/25 15:48:51;;;;;;;;;;;;;;;;;;4998946;28;19921;-50
2022/02/25 15:51:16;;;;;;;;;;;;;;;;;;4997032;28;20392;-52
2022/02/25 15:53:41;;;;;;;;;;;;;;;;;;4998667;28;19925;-52
2022/02/25 15:56:08;;;;;;;;;;;;;;;;;;4999524;28;19914;-52
2022/02/25 15:58:33;;;;;;;;;;;;;;;;;;4998295;28;19932;-52
2022/02/25 16:00:58;;;;;;;;;;;;;;;;;;5000477;28;20389;-49
2022/02/25 16:03:23;;;;;;;;;;;;;;;;;;4999025;28;19933;-52
2022/02/25 16:05:49;;;;;;;;;;;;;;;;;;5001113;28;20005;-49
2022/02/25 16:08:14;;;;;;;;;;;;;;;;;;5000047;28;19922;-52
2022/02/25 16:10:39;;;;;;;;;;;;;;;;;;5016335;28;19924;-49
2022/02/25 16:13:06;;;;;;;;;;;;;;;;;;5000027;28;19910;-51
2022/02/25 16:15:34;;;;;;;;;;;;;;;;;;4999212;28;19945;-49
2022/02/25 16:17:59;;;;;;;;;;;;;;;;;;5000050;28;19914;-51
2022/02/25 16:20:24;;;;;;;;;;;;;;;;;;4997251;28;19947;-52
2022/02/25 16:22:49;;;;;;;;;;;;;;;;;;5001143;28;20529;-52
2022/02/25 16:25:15;;;;;;;;;;;;;;;;;;5010743;28;19968;-52
2022/02/25 16:27:40;;;;;;;;;;;;;;;;;;5001628;28;19949;-51
2022/02/25 16:30:05;;;;;;;;;;;;;;;;;;5003401;28;19968;-48
2022/02/25 16:32:30;;;;;;;;;;;;;;;;;;5004508;28;19949;-49
2022/02/25 16:34:57;;;;;;;;;;;;;;;;;;5001702;28;19910;-51
2022/02/25 16:37:22;;;;;;;;;;;;;;;;;;5001386;28;19921;-51
2022/02/25 16:39:47;;;;;;;;;;;;;;;;;;5000828;28;19918;-50